createdAt,value
2019-03-09T00:01:14.562Z,8.79
2019-03-09T00:03:44.957Z,8.86
2019-03-09T00:06:15.501Z,8.80
2019-03-09T00:08:45.918Z,8.76
2019-03-09T00:11:18.071Z,8.86
2019-03-09T00:13:48.607Z,8.80
2019-03-09T00:16:19.173Z,8.83
2019-03-09T00:18:50.006Z,8.77
2019-03-09T00:21:20.639Z,8.73
2019-03-09T00:24:01.715Z,8.69
2019-03-09T00:26:33.882Z,8.79
2019-03-09T00:29:11.887Z,8.74
2019-03-09T00:31:46.920Z,8.72
2019-03-09T00:34:17.248Z,8.78
2019-03-09T00:36:47.773Z,8.80
2019-03-09T00:39:18.194Z,8.75
2019-03-09T00:41:48.826Z,8.79
2019-03-09T00:44:19.050Z,8.76
2019-03-09T00:46:49.472Z,8.65
2019-03-09T00:49:20.002Z,8.65
2019-03-09T00:51:50.905Z,8.68
2019-03-09T00:54:21.265Z,8.68
2019-03-09T00:56:51.691Z,8.64
2019-03-09T00:59:22.114Z,8.56
2019-03-09T01:01:53.154Z,8.57
2019-03-09T01:04:23.580Z,8.70
2019-03-09T01:06:54.109Z,8.69
2019-03-09T01:09:24.638Z,8.62
2019-03-09T01:11:55.169Z,8.65
2019-03-09T01:14:25.499Z,8.53
2019-03-09T01:16:55.923Z,8.60
2019-03-09T01:19:26.449Z,8.60
2019-03-09T01:21:56.974Z,8.49
2019-03-09T01:24:27.201Z,8.49
2019-03-09T01:26:57.525Z,8.47
2019-03-09T01:29:27.944Z,8.47
2019-03-09T01:31:58.472Z,8.42
2019-03-09T01:34:29.001Z,8.55
2019-03-09T01:36:59.529Z,8.54
2019-03-09T01:39:31.184Z,8.55
2019-03-09T01:42:01.715Z,8.60
2019-03-09T01:44:31.935Z,8.68
2019-03-09T01:47:02.322Z,8.57
2019-03-09T01:49:32.888Z,8.58
2019-03-09T01:52:03.741Z,8.53
2019-03-09T01:54:34.048Z,8.54
2019-03-09T01:57:06.067Z,8.49
2019-03-09T01:59:36.642Z,8.45
2019-03-09T02:02:07.277Z,8.31
2019-03-09T02:04:37.597Z,8.41
2019-03-09T02:07:08.124Z,8.39
2019-03-09T02:09:39.576Z,8.37
2019-03-09T02:12:10.205Z,8.29
2019-03-09T02:14:40.530Z,8.39
2019-03-09T02:17:10.751Z,8.48
2019-03-09T02:19:41.176Z,8.53
2019-03-09T02:22:11.706Z,8.40
2019-03-09T02:24:42.233Z,8.42
2019-03-09T02:27:12.457Z,8.40
2019-03-09T02:29:42.888Z,8.39
2019-03-09T02:32:13.311Z,8.50
2019-03-09T02:34:43.839Z,8.34
2019-03-09T02:37:14.364Z,8.33
2019-03-09T02:39:49.308Z,8.23
2019-03-09T02:42:19.738Z,8.38
2019-03-09T02:44:50.264Z,8.33
2019-03-09T02:47:20.785Z,8.35
2019-03-09T02:49:51.307Z,8.35
2019-03-09T02:52:23.671Z,8.32
2019-03-09T02:54:54.581Z,8.48
2019-03-09T02:57:26.994Z,8.29
2019-03-09T02:59:57.527Z,8.33
2019-03-09T03:02:29.790Z,8.48
2019-03-09T03:05:00.009Z,8.40
2019-03-09T03:07:30.435Z,8.20
2019-03-09T03:10:00.657Z,8.40
2019-03-09T03:12:31.087Z,8.32
2019-03-09T03:15:01.531Z,8.21
2019-03-09T03:17:32.039Z,8.42
2019-03-09T03:20:02.572Z,8.37
2019-03-09T03:22:32.992Z,8.45
2019-03-09T03:25:03.698Z,8.34
2019-03-09T03:27:33.968Z,8.26
2019-03-09T03:30:05.746Z,8.40
2019-03-09T03:32:36.848Z,8.38
2019-03-09T03:35:09.706Z,8.38
2019-03-09T03:37:39.864Z,8.51
2019-03-09T03:40:10.890Z,8.44
2019-03-09T03:42:41.328Z,8.40
2019-03-09T03:45:12.564Z,8.56
2019-03-09T03:47:42.793Z,8.41
2019-03-09T03:50:13.220Z,8.43
2019-03-09T03:52:44.561Z,8.37
2019-03-09T03:55:15.416Z,8.54
2019-03-09T03:57:45.927Z,8.50
2019-03-09T04:00:16.455Z,8.47
2019-03-09T04:02:47.186Z,8.45
2019-03-09T04:05:17.609Z,8.46
2019-03-09T04:07:47.834Z,8.41
2019-03-09T04:10:19.841Z,8.44
2019-03-09T04:12:50.322Z,8.35
2019-03-09T04:15:20.961Z,8.43
2019-03-09T04:17:51.175Z,8.40
2019-03-09T04:20:21.601Z,8.35
2019-03-09T04:22:52.130Z,8.39
2019-03-09T04:25:22.656Z,8.46
2019-03-09T04:27:52.883Z,8.47
2019-03-09T04:30:23.206Z,8.61
2019-03-09T04:32:54.819Z,8.58
2019-03-09T04:35:25.187Z,8.73
2019-03-09T04:37:55.506Z,8.66
2019-03-09T04:40:25.934Z,8.42
2019-03-09T04:42:56.356Z,8.60
2019-03-09T04:45:26.579Z,8.55
2019-03-09T04:47:56.972Z,8.60
2019-03-09T04:50:27.435Z,8.52
2019-03-09T04:52:58.262Z,8.52
2019-03-09T04:55:28.997Z,8.66
2019-03-09T04:57:59.525Z,8.60
2019-03-09T05:00:29.710Z,8.55
2019-03-09T05:03:00.496Z,8.40
2019-03-09T05:05:31.182Z,8.42
2019-03-09T05:08:06.622Z,8.27
2019-03-09T05:10:42.823Z,8.36
2019-03-09T05:13:23.812Z,8.36
2019-03-09T05:15:54.013Z,8.44
2019-03-09T05:18:26.081Z,8.38
2019-03-09T05:20:56.608Z,8.35
2019-03-09T05:23:27.105Z,8.37
2019-03-09T05:25:57.664Z,8.37
2019-03-09T05:28:28.094Z,8.51
2019-03-09T05:30:58.517Z,8.53
2019-03-09T05:33:28.906Z,8.63
2019-03-09T05:36:01.305Z,8.63
2019-03-09T05:38:32.887Z,8.78
2019-03-09T05:41:03.468Z,8.67
2019-03-09T05:43:34.435Z,8.58
2019-03-09T05:46:04.758Z,8.59
2019-03-09T05:48:35.387Z,8.51
2019-03-09T05:51:06.024Z,8.64
2019-03-09T05:53:37.017Z,8.56
2019-03-09T05:56:07.979Z,8.72
2019-03-09T05:58:38.731Z,8.77
2019-03-09T06:01:09.588Z,8.92
2019-03-09T06:03:40.304Z,8.85
2019-03-09T06:06:11.036Z,9.10
2019-03-09T06:08:41.770Z,9.11
2019-03-09T06:11:12.504Z,9.15
2019-03-09T06:13:43.032Z,9.05
2019-03-09T06:16:13.461Z,9.41
2019-03-09T06:18:43.987Z,9.69
2019-03-09T06:21:14.632Z,9.81
2019-03-09T06:23:45.054Z,9.88
2019-03-09T06:26:15.365Z,9.94
2019-03-09T06:28:45.997Z,9.98
2019-03-09T06:31:17.001Z,9.93
2019-03-09T06:33:47.568Z,10.29
2019-03-09T06:36:31.719Z,10.26
2019-03-09T06:39:05.011Z,10.12
2019-03-09T06:41:52.637Z,10.10
2019-03-09T06:44:23.063Z,10.08
2019-03-09T06:46:53.695Z,10.12
2019-03-09T06:49:25.373Z,9.91
2019-03-09T06:51:56.367Z,10.19
2019-03-09T06:54:26.711Z,10.34
2019-03-09T06:56:57.243Z,10.10
2019-03-09T06:59:27.643Z,10.26
2019-03-09T07:02:01.370Z,9.97
2019-03-09T07:04:32.210Z,9.84
2019-03-09T07:07:04.474Z,9.79
2019-03-09T07:09:36.322Z,9.99
2019-03-09T07:12:09.528Z,9.78
2019-03-09T07:14:55.885Z,10.00
2019-03-09T07:17:26.456Z,10.20
2019-03-09T07:20:00.357Z,9.90
2019-03-09T07:22:31.101Z,10.19
2019-03-09T07:25:03.308Z,10.33
2019-03-09T07:27:34.303Z,10.31
2019-03-09T07:30:12.241Z,10.37
2019-03-09T07:32:42.840Z,10.40
2019-03-09T07:35:13.141Z,10.70
2019-03-09T07:37:43.788Z,10.83
2019-03-09T07:40:14.217Z,10.71
2019-03-09T07:42:44.867Z,10.66
2019-03-09T07:45:15.245Z,10.72
2019-03-09T07:47:46.895Z,10.80
2019-03-09T07:50:19.603Z,11.09
2019-03-09T07:52:50.549Z,11.18
2019-03-09T07:55:21.795Z,11.07
2019-03-09T07:57:52.419Z,11.43
2019-03-09T08:00:22.759Z,11.46
2019-03-09T08:02:53.854Z,11.45
2019-03-09T08:05:24.311Z,11.51
2019-03-09T08:07:54.845Z,11.71
2019-03-09T08:10:28.132Z,11.54
2019-03-09T08:12:58.972Z,11.60
2019-03-09T08:15:29.704Z,11.85
2019-03-09T08:18:08.482Z,11.73
2019-03-09T08:20:45.809Z,11.46
2019-03-09T08:23:18.204Z,11.35
2019-03-09T08:25:51.736Z,11.34
2019-03-09T08:28:22.111Z,11.10
2019-03-09T08:30:52.748Z,11.77
2019-03-09T08:33:23.495Z,11.09
2019-03-09T08:35:55.437Z,11.18
2019-03-09T08:38:30.746Z,11.57
2019-03-09T08:41:03.566Z,12.14
2019-03-09T08:43:34.686Z,12.22
2019-03-09T08:46:10.249Z,11.86
2019-03-09T08:48:45.411Z,12.54
2019-03-09T08:51:32.624Z,12.64
2019-03-09T08:54:04.057Z,13.14
2019-03-09T08:56:36.076Z,13.03
2019-03-09T08:59:06.751Z,12.52
2019-03-09T09:01:37.749Z,12.50
2019-03-09T09:04:13.229Z,12.63
2019-03-09T09:06:44.181Z,12.61
2019-03-09T09:09:18.577Z,12.32
2019-03-09T09:11:56.136Z,12.77
2019-03-09T09:14:31.731Z,12.75
2019-03-09T09:17:12.269Z,13.10
2019-03-09T09:19:49.148Z,12.95
2019-03-09T09:22:20.975Z,13.00
2019-03-09T09:24:56.183Z,12.55
2019-03-09T09:27:26.598Z,11.91
2019-03-09T09:29:57.135Z,11.75
2019-03-09T09:32:27.759Z,11.84
2019-03-09T09:34:58.286Z,11.70
2019-03-09T09:37:28.637Z,11.85
2019-03-09T09:39:59.136Z,11.84
2019-03-09T09:42:29.564Z,12.00
2019-03-09T09:44:59.989Z,11.91
2019-03-09T09:47:30.330Z,11.92
2019-03-09T09:50:00.944Z,11.74
2019-03-09T09:52:31.848Z,11.86
2019-03-09T09:55:02.206Z,12.15
2019-03-09T09:57:33.457Z,12.21
2019-03-09T10:00:06.131Z,11.67
2019-03-09T10:02:36.859Z,11.18
2019-03-09T10:05:08.728Z,10.90
2019-03-09T10:07:39.562Z,11.04
2019-03-09T10:10:14.460Z,11.73
2019-03-09T10:12:46.461Z,12.12
2019-03-09T10:15:17.871Z,11.94
2019-03-09T10:17:48.222Z,11.72
2019-03-09T10:20:18.659Z,11.82
2019-03-09T10:22:50.530Z,11.73
2019-03-09T10:25:21.140Z,12.07
2019-03-09T10:27:52.203Z,12.47
2019-03-09T10:30:23.014Z,12.29
2019-03-09T10:32:53.445Z,12.08
2019-03-09T10:35:24.853Z,11.62
2019-03-09T10:37:57.213Z,11.77
2019-03-09T10:40:27.911Z,11.82
2019-03-09T10:42:58.649Z,11.41
2019-03-09T10:45:36.862Z,11.56
2019-03-09T10:48:10.847Z,11.53
2019-03-09T10:50:41.373Z,11.42
2019-03-09T10:53:12.213Z,11.54
2019-03-09T10:55:43.060Z,10.94
2019-03-09T10:58:15.030Z,11.29
2019-03-09T11:00:45.903Z,11.58
2019-03-09T11:03:16.476Z,11.59
2019-03-09T11:05:47.620Z,11.24
2019-03-09T11:08:17.910Z,11.07
2019-03-09T11:10:51.618Z,11.13
2019-03-09T11:13:23.407Z,10.87
2019-03-09T11:15:54.034Z,10.80
2019-03-09T11:18:24.533Z,10.43
2019-03-09T11:20:56.013Z,10.65
2019-03-09T11:23:26.759Z,10.89
2019-03-09T11:25:57.784Z,11.11
2019-03-09T11:28:33.509Z,11.19
2019-03-09T11:31:04.579Z,11.26
2019-03-09T11:33:37.516Z,11.36
2019-03-09T11:36:08.094Z,11.29
2019-03-09T11:38:38.600Z,11.34
2019-03-09T11:41:18.753Z,11.33
2019-03-09T11:43:42.351Z,11.68
2019-03-09T11:46:13.195Z,11.73
2019-03-09T11:48:43.926Z,11.50
2019-03-09T11:51:14.717Z,11.81
2019-03-09T11:53:45.172Z,11.97
2019-03-09T11:56:22.162Z,12.27
2019-03-09T11:58:58.523Z,12.25
2019-03-09T12:01:33.424Z,12.24
2019-03-09T12:04:07.149Z,12.29
2019-03-09T12:06:41.377Z,12.11
2019-03-09T12:09:17.987Z,12.23
2019-03-09T12:11:58.304Z,12.24
2019-03-09T12:14:33.093Z,12.10
2019-03-09T12:17:12.210Z,12.36
2019-03-09T12:19:37.151Z,12.15
2019-03-09T12:22:08.314Z,12.06
2019-03-09T12:24:47.954Z,12.54
2019-03-09T12:27:21.642Z,12.33
2019-03-09T12:29:52.677Z,12.18
2019-03-09T12:32:35.496Z,12.23
2019-03-09T12:35:06.836Z,12.37
2019-03-09T12:37:37.259Z,12.30
2019-03-09T12:40:09.646Z,12.48
2019-03-09T12:42:46.837Z,12.54
2019-03-09T12:45:17.264Z,12.78
2019-03-09T12:47:52.903Z,12.88
2019-03-09T12:50:27.299Z,12.88
2019-03-09T12:52:58.546Z,12.88
2019-03-09T12:55:30.188Z,12.88
2019-03-09T12:58:02.297Z,12.78
2019-03-09T13:00:35.099Z,12.60
2019-03-09T13:03:05.703Z,12.80
2019-03-09T13:05:36.646Z,12.75
2019-03-09T13:08:09.007Z,12.83
2019-03-09T13:10:41.900Z,12.89
2019-03-09T13:13:16.908Z,13.09
2019-03-09T13:15:47.661Z,13.11
2019-03-09T13:18:24.553Z,13.10
2019-03-09T13:21:03.257Z,13.08
2019-03-09T13:23:33.885Z,13.02
2019-03-09T13:26:07.498Z,12.82
2019-03-09T13:28:38.018Z,12.75
2019-03-09T13:31:08.747Z,12.86
2019-03-09T13:33:39.280Z,12.87
2019-03-09T13:36:10.113Z,13.12
2019-03-09T13:38:40.640Z,13.06
2019-03-09T13:41:11.297Z,13.01
2019-03-09T13:43:42.012Z,12.91
2019-03-09T13:46:12.741Z,12.88
2019-03-09T13:48:43.334Z,12.87
2019-03-09T13:51:16.133Z,12.94
2019-03-09T13:53:47.869Z,12.90
2019-03-09T13:56:18.442Z,12.90
2019-03-09T13:58:50.290Z,12.88
2019-03-09T14:01:21.134Z,13.04
2019-03-09T14:03:51.661Z,12.96
2019-03-09T14:06:25.073Z,13.13
2019-03-09T14:09:01.033Z,13.19
2019-03-09T14:11:33.185Z,13.24
2019-03-09T14:14:03.710Z,13.07
2019-03-09T14:16:34.444Z,12.95
2019-03-09T14:19:05.210Z,13.02
2019-03-09T14:21:36.120Z,12.99
2019-03-09T14:24:06.747Z,12.76
2019-03-09T14:26:38.405Z,12.85
2019-03-09T14:29:09.262Z,12.60
2019-03-09T14:31:39.557Z,12.55
2019-03-09T14:34:10.700Z,12.59
2019-03-09T14:36:41.330Z,12.72
2019-03-09T14:39:15.035Z,12.53
2019-03-09T14:41:45.664Z,12.40
2019-03-09T14:44:16.091Z,12.53
2019-03-09T14:46:46.729Z,12.27
2019-03-09T14:49:17.149Z,11.95
2019-03-09T14:51:48.927Z,11.94
2019-03-09T14:54:19.748Z,11.81
2019-03-09T14:56:50.177Z,11.82
2019-03-09T14:59:20.593Z,11.53
2019-03-09T15:01:51.530Z,11.39
2019-03-09T15:04:21.961Z,11.45
2019-03-09T15:06:52.692Z,11.33
2019-03-09T15:09:23.332Z,11.35
2019-03-09T15:11:54.668Z,11.33
2019-03-09T15:14:27.207Z,11.27
2019-03-09T15:16:57.672Z,11.46
2019-03-09T15:19:30.219Z,11.51
2019-03-09T15:22:00.953Z,11.43
2019-03-09T15:24:31.577Z,11.31
2019-03-09T15:27:03.032Z,11.20
2019-03-09T15:29:33.691Z,11.03
2019-03-09T15:32:05.041Z,10.96
2019-03-09T15:34:38.928Z,10.96
2019-03-09T15:37:10.298Z,10.95
2019-03-09T15:39:46.015Z,10.96
2019-03-09T15:42:16.679Z,11.01
2019-03-09T15:44:48.761Z,11.04
2019-03-09T15:47:19.466Z,11.02
2019-03-09T15:49:53.298Z,10.91
2019-03-09T15:52:23.829Z,10.86
2019-03-09T15:54:54.241Z,10.81
2019-03-09T15:57:24.665Z,10.75
2019-03-09T15:59:55.405Z,10.77
2019-03-09T16:02:26.443Z,10.79
2019-03-09T16:04:56.768Z,10.84
2019-03-09T16:07:27.492Z,10.80
2019-03-09T16:09:58.027Z,10.76
2019-03-09T16:12:28.756Z,10.68
2019-03-09T16:14:59.182Z,10.69
2019-03-09T16:17:30.502Z,10.65
2019-03-09T16:20:00.871Z,10.63
2019-03-09T16:22:33.381Z,10.60
2019-03-09T16:25:04.543Z,10.56
2019-03-09T16:27:35.101Z,10.65
2019-03-09T16:30:07.571Z,10.62
2019-03-09T16:32:39.446Z,10.56
2019-03-09T16:35:12.068Z,10.51
2019-03-09T16:37:42.851Z,10.54
2019-03-09T16:40:15.288Z,10.41
2019-03-09T16:42:48.008Z,10.35
2019-03-09T16:45:23.725Z,10.35
2019-03-09T16:47:54.624Z,10.23
2019-03-09T16:50:27.091Z,10.17
2019-03-09T16:53:00.915Z,10.22
2019-03-09T16:55:34.463Z,10.33
2019-03-09T16:58:04.896Z,10.27
2019-03-09T17:00:36.073Z,10.02
2019-03-09T17:03:07.641Z,9.92
2019-03-09T17:05:38.507Z,10.00
2019-03-09T17:08:09.261Z,9.80
2019-03-09T17:10:44.928Z,9.59
2019-03-09T17:13:23.221Z,9.45
2019-03-09T17:15:54.061Z,9.54
2019-03-09T17:18:24.700Z,9.56
2019-03-09T17:20:56.778Z,9.53
2019-03-09T17:23:27.702Z,9.60
2019-03-09T17:25:58.342Z,9.58
2019-03-09T17:28:28.954Z,9.45
2019-03-09T17:31:01.380Z,9.31
2019-03-09T17:33:33.088Z,9.27
2019-03-09T17:36:05.458Z,9.35
2019-03-09T17:38:37.112Z,9.19
2019-03-09T17:41:11.772Z,9.06
2019-03-09T17:43:42.259Z,8.98
2019-03-09T17:46:17.556Z,9.00
2019-03-09T17:48:51.441Z,9.02
2019-03-09T17:51:27.221Z,8.97
2019-03-09T17:53:56.823Z,8.93
2019-03-09T17:56:29.268Z,8.91
2019-03-09T17:59:02.838Z,9.02
2019-03-09T18:01:35.973Z,8.93
2019-03-09T18:04:06.556Z,8.86
2019-03-09T18:06:42.416Z,8.80
2019-03-09T18:09:12.734Z,8.88
2019-03-09T18:11:45.674Z,8.61
2019-03-09T18:14:16.657Z,8.54
2019-03-09T18:16:52.725Z,8.44
2019-03-09T18:19:23.542Z,8.40
2019-03-09T18:21:54.392Z,8.47
2019-03-09T18:24:25.121Z,8.68
2019-03-09T18:26:58.055Z,8.75
2019-03-09T18:29:29.723Z,8.69
2019-03-09T18:32:00.712Z,8.67
2019-03-09T18:34:34.534Z,8.73
2019-03-09T18:37:10.645Z,8.67
2019-03-09T18:39:50.052Z,8.64
2019-03-09T18:42:44.082Z,8.54
2019-03-09T18:45:22.402Z,8.45
2019-03-09T18:47:55.993Z,8.34
2019-03-09T18:50:26.626Z,8.29
2019-03-09T18:52:59.671Z,8.33
2019-03-09T18:55:33.806Z,8.27
2019-03-09T18:58:05.275Z,8.21
2019-03-09T19:00:43.976Z,8.13
2019-03-09T19:03:21.013Z,8.03
2019-03-09T19:05:53.324Z,8.00
2019-03-09T19:08:25.513Z,7.85
2019-03-09T19:10:59.934Z,7.51
2019-03-09T19:13:30.259Z,7.33
2019-03-09T19:16:02.656Z,7.42
2019-03-09T19:18:34.796Z,7.51
2019-03-09T19:21:05.426Z,7.43
2019-03-09T19:23:40.947Z,7.18
2019-03-09T19:26:11.259Z,7.02
2019-03-09T19:28:43.668Z,7.07
2019-03-09T19:31:17.883Z,6.99
2019-03-09T19:33:52.715Z,6.91
2019-03-09T19:36:31.447Z,6.97
2019-03-09T19:39:06.400Z,6.93
2019-03-09T19:41:39.674Z,6.82
2019-03-09T19:44:13.565Z,6.80
2019-03-09T19:46:44.110Z,6.80
2019-03-09T19:49:14.827Z,6.65
2019-03-09T19:51:45.768Z,6.69
2019-03-09T19:54:16.295Z,6.80
2019-03-09T19:56:46.926Z,6.71
2019-03-09T19:59:19.322Z,6.75
2019-03-09T20:01:51.351Z,6.68
2019-03-09T20:04:21.659Z,6.62
2019-03-09T20:06:52.338Z,6.48
2019-03-09T20:09:23.666Z,6.52
2019-03-09T20:11:55.586Z,6.54
2019-03-09T20:14:26.262Z,6.63
2019-03-09T20:17:04.994Z,6.51
2019-03-09T20:19:44.313Z,6.25
2019-03-09T20:22:17.309Z,6.42
2019-03-09T20:24:48.394Z,6.56
2019-03-09T20:27:26.122Z,6.81
2019-03-09T20:29:58.415Z,6.89
2019-03-09T20:32:32.212Z,6.98
2019-03-09T20:35:03.047Z,6.95
2019-03-09T20:37:50.291Z,7.16
2019-03-09T20:40:23.974Z,7.27
2019-03-09T20:42:54.398Z,6.98
2019-03-09T20:45:25.036Z,6.96
2019-03-09T20:47:56.175Z,7.06
2019-03-09T20:50:26.911Z,6.97
2019-03-09T20:52:58.251Z,6.97
2019-03-09T20:55:28.780Z,7.09
2019-03-09T20:57:59.312Z,7.00
2019-03-09T21:00:31.958Z,7.06
2019-03-09T21:03:02.109Z,6.99
2019-03-09T21:05:32.326Z,6.96
2019-03-09T21:08:02.652Z,6.94
2019-03-09T21:10:33.184Z,6.89
2019-03-09T21:13:07.674Z,7.04
2019-03-09T21:15:38.127Z,7.05
2019-03-09T21:18:08.658Z,6.95
2019-03-09T21:20:39.186Z,6.97
2019-03-09T21:23:13.505Z,6.93
2019-03-09T21:25:47.319Z,6.97
2019-03-09T21:28:16.501Z,7.17
2019-03-09T21:30:48.889Z,7.29
2019-03-09T21:33:19.818Z,7.28
2019-03-09T21:35:50.349Z,7.20
2019-03-09T21:38:21.266Z,7.13
2019-03-09T21:40:52.028Z,7.05
2019-03-09T21:43:23.070Z,7.03
2019-03-09T21:45:53.588Z,6.71
2019-03-09T21:48:23.917Z,6.78
2019-03-09T21:50:54.746Z,6.73
2019-03-09T21:53:25.480Z,6.56
2019-03-09T21:55:56.629Z,6.51
2019-03-09T21:58:29.075Z,6.44
2019-03-09T22:00:59.711Z,6.49
2019-03-09T22:03:30.167Z,6.43
2019-03-09T22:06:06.016Z,6.28
2019-03-09T22:08:32.810Z,6.36
2019-03-09T22:11:03.377Z,6.38
2019-03-09T22:13:35.705Z,6.31
2019-03-09T22:16:06.276Z,6.34
2019-03-09T22:18:37.010Z,6.26
2019-03-09T22:21:07.640Z,6.34
2019-03-09T22:23:43.965Z,6.35
2019-03-09T22:26:10.521Z,6.29
2019-03-09T22:28:40.966Z,6.21
2019-03-09T22:31:11.289Z,6.29
2019-03-09T22:33:42.227Z,6.26
2019-03-09T22:36:12.554Z,6.27
2019-03-09T22:38:42.978Z,6.32
2019-03-09T22:41:13.526Z,6.32
2019-03-09T22:43:44.217Z,6.34
2019-03-09T22:46:15.898Z,6.24
2019-03-09T22:48:46.427Z,6.13
2019-03-09T22:51:17.469Z,6.23
2019-03-09T22:53:47.994Z,6.27
2019-03-09T22:56:18.599Z,6.16
2019-03-09T22:58:49.262Z,6.10
2019-03-09T23:01:20.194Z,6.15
2019-03-09T23:03:50.625Z,6.21
2019-03-09T23:06:22.072Z,6.17
2019-03-09T23:08:52.603Z,6.17
2019-03-09T23:11:23.227Z,6.06
2019-03-09T23:13:53.453Z,6.10
2019-03-09T23:16:23.879Z,5.97
2019-03-09T23:18:54.384Z,5.94
2019-03-09T23:21:24.793Z,5.82
2019-03-09T23:23:55.364Z,5.87
2019-03-09T23:26:25.993Z,5.88
2019-03-09T23:28:56.521Z,5.94
2019-03-09T23:31:26.846Z,5.81
2019-03-09T23:33:58.489Z,5.84
2019-03-09T23:36:29.028Z,5.86
2019-03-09T23:38:59.657Z,5.92
2019-03-09T23:41:31.415Z,5.95
2019-03-09T23:44:01.944Z,5.90
2019-03-09T23:46:32.267Z,5.84
2019-03-09T23:49:02.695Z,5.74
2019-03-09T23:51:33.631Z,5.76
2019-03-09T23:54:03.958Z,5.90
2019-03-09T23:56:34.380Z,5.84
2019-03-09T23:59:04.908Z,5.85
